createdAt,value
2018-01-07T00:00:33.176Z,1011.96
2018-01-07T00:01:33.210Z,1011.95
2018-01-07T00:02:33.241Z,1011.99
2018-01-07T00:03:33.267Z,1012.03
2018-01-07T00:04:33.296Z,1012.02
2018-01-07T00:05:33.584Z,1012.04
2018-01-07T00:08:33.425Z,1012.08
2018-01-07T00:09:33.453Z,1012.15
2018-01-07T00:10:33.481Z,1012.11
2018-01-07T00:11:33.515Z,1012.10
2018-01-07T00:12:33.853Z,1012.14
2018-01-07T00:13:33.577Z,1012.16
2018-01-07T00:14:33.607Z,1012.13
2018-01-07T00:15:33.639Z,1012.14
2018-01-07T00:16:33.670Z,1012.15
2018-01-07T00:18:33.740Z,1012.16
2018-01-07T00:19:34.008Z,1012.21
2018-01-07T00:20:33.802Z,1012.20
2018-01-07T00:21:33.819Z,1012.24
2018-01-07T00:22:33.869Z,1012.20
2018-01-07T00:23:34.431Z,1012.27
2018-01-07T00:24:33.920Z,1012.26
2018-01-07T00:25:33.942Z,1012.27
2018-01-07T00:26:34.222Z,1012.26
2018-01-07T00:27:34.006Z,1012.24
2018-01-07T00:28:34.034Z,1012.24
2018-01-07T00:29:34.070Z,1012.28
2018-01-07T00:30:34.112Z,1012.30
2018-01-07T00:31:34.129Z,1012.31
2018-01-07T00:32:34.157Z,1012.31
2018-01-07T00:33:35.386Z,1012.33
2018-01-07T00:34:34.218Z,1012.32
2018-01-07T00:35:34.249Z,1012.37
2018-01-07T00:36:34.279Z,1012.38
2018-01-07T00:37:34.312Z,1012.38
2018-01-07T00:38:34.460Z,1012.41
2018-01-07T00:39:34.370Z,1012.43
2018-01-07T00:40:34.649Z,1012.42
2018-01-07T00:41:34.435Z,1012.48
2018-01-07T00:42:34.462Z,1012.47
2018-01-07T00:43:34.498Z,1012.46
2018-01-07T00:44:34.523Z,1012.46
2018-01-07T00:45:34.559Z,1012.45
2018-01-07T00:46:34.788Z,1012.53
2018-01-07T00:47:34.946Z,1012.50
2018-01-07T00:48:34.658Z,1012.49
2018-01-07T00:49:34.723Z,1012.49
2018-01-07T00:50:34.725Z,1012.54
2018-01-07T00:51:34.747Z,1012.54
2018-01-07T00:52:34.767Z,1012.56
2018-01-07T00:53:34.801Z,1012.57
2018-01-07T00:54:35.784Z,1012.62
2018-01-07T00:55:34.870Z,1012.64
2018-01-07T00:56:34.893Z,1012.69
2018-01-07T00:57:34.926Z,1012.76
2018-01-07T00:58:34.954Z,1012.75
2018-01-07T01:00:35.018Z,1012.76
2018-01-07T01:01:35.350Z,1012.77
2018-01-07T01:02:35.072Z,1012.80
2018-01-07T01:03:35.104Z,1012.81
2018-01-07T01:04:35.134Z,1012.83
2018-01-07T01:05:35.168Z,1012.84
2018-01-07T01:06:35.198Z,1012.86
2018-01-07T01:07:35.232Z,1012.92
2018-01-07T01:08:36.798Z,1012.90
2018-01-07T01:09:35.285Z,1012.93
2018-01-07T01:10:35.317Z,1012.99
2018-01-07T01:11:35.350Z,1012.94
2018-01-07T01:12:35.381Z,1013.00
2018-01-07T01:13:35.412Z,1012.99
2018-01-07T01:14:35.452Z,1013.06
2018-01-07T01:15:35.775Z,1013.06
2018-01-07T01:16:36.208Z,1013.05
2018-01-07T01:17:35.539Z,1013.12
2018-01-07T01:18:35.569Z,1013.10
2018-01-07T01:19:35.599Z,1013.10
2018-01-07T01:20:35.626Z,1013.15
2018-01-07T01:21:35.659Z,1013.14
2018-01-07T01:22:35.989Z,1013.15
2018-01-07T01:23:35.720Z,1013.17
2018-01-07T01:24:35.755Z,1013.24
2018-01-07T01:25:35.782Z,1013.23
2018-01-07T01:26:35.812Z,1013.24
2018-01-07T01:27:35.862Z,1013.26
2018-01-07T01:28:35.870Z,1013.28
2018-01-07T01:29:36.154Z,1013.35
2018-01-07T01:30:35.930Z,1013.35
2018-01-07T01:31:35.962Z,1013.34
2018-01-07T01:32:35.998Z,1013.34
2018-01-07T01:33:36.022Z,1013.35
2018-01-07T01:34:36.053Z,1013.33
2018-01-07T01:35:36.087Z,1013.37
2018-01-07T01:36:36.130Z,1013.41
2018-01-07T01:37:36.149Z,1013.40
2018-01-07T01:38:36.178Z,1013.42
2018-01-07T01:39:36.210Z,1013.41
2018-01-07T01:40:36.241Z,1013.42
2018-01-07T01:41:36.283Z,1013.48
2018-01-07T01:42:36.600Z,1013.44
2018-01-07T01:44:36.365Z,1013.54
2018-01-07T01:45:36.397Z,1013.52
2018-01-07T01:46:36.424Z,1013.58
2018-01-07T01:47:36.453Z,1013.57
2018-01-07T01:48:36.788Z,1013.59
2018-01-07T01:49:36.514Z,1013.62
2018-01-07T01:50:36.548Z,1013.65
2018-01-07T01:51:36.576Z,1013.64
2018-01-07T01:52:36.620Z,1013.66
2018-01-07T01:54:36.672Z,1013.72
2018-01-07T01:55:38.882Z,1013.75
2018-01-07T01:56:36.731Z,1013.76
2018-01-07T01:58:36.796Z,1013.74
2018-01-07T01:59:36.824Z,1013.80
2018-01-07T02:00:36.860Z,1013.79
2018-01-07T02:01:37.134Z,1013.83
2018-01-07T02:02:36.917Z,1013.79
2018-01-07T02:03:36.948Z,1013.84
2018-01-07T02:04:37.177Z,1013.77
2018-01-07T02:05:37.008Z,1013.79
2018-01-07T02:06:37.086Z,1013.81
2018-01-07T02:07:37.344Z,1013.83
2018-01-07T02:08:37.128Z,1013.84
2018-01-07T02:09:37.141Z,1013.86
2018-01-07T02:10:37.157Z,1013.84
2018-01-07T02:11:37.190Z,1013.83
2018-01-07T02:12:37.218Z,1013.90
2018-01-07T02:13:37.250Z,1013.89
2018-01-07T02:14:37.538Z,1013.92
2018-01-07T02:15:37.317Z,1013.90
2018-01-07T02:16:37.341Z,1013.94
2018-01-07T02:17:37.372Z,1013.97
2018-01-07T02:18:37.450Z,1013.98
2018-01-07T02:19:37.444Z,1014.03
2018-01-07T02:20:37.469Z,1013.99
2018-01-07T02:21:37.751Z,1013.97
2018-01-07T02:22:37.530Z,1014.00
2018-01-07T02:23:37.557Z,1014.07
2018-01-07T02:24:37.590Z,1014.04
2018-01-07T02:25:37.621Z,1014.08
2018-01-07T02:26:37.651Z,1014.05
2018-01-07T02:27:37.929Z,1014.11
2018-01-07T02:28:37.716Z,1014.11
2018-01-07T02:29:37.739Z,1014.17
2018-01-07T02:30:37.775Z,1014.19
2018-01-07T02:31:37.809Z,1014.19
2018-01-07T02:32:37.835Z,1014.17
2018-01-07T02:33:37.861Z,1014.22
2018-01-07T02:34:38.143Z,1014.26
2018-01-07T02:36:37.955Z,1014.30
2018-01-07T02:37:37.992Z,1014.26
2018-01-07T02:38:38.015Z,1014.27
2018-01-07T02:39:38.046Z,1014.34
2018-01-07T02:40:38.096Z,1014.34
2018-01-07T02:41:38.358Z,1014.33
2018-01-07T02:42:38.140Z,1014.35
2018-01-07T02:43:38.221Z,1014.35
2018-01-07T02:44:38.199Z,1014.37
2018-01-07T02:45:38.231Z,1014.37
2018-01-07T02:46:38.264Z,1014.34
2018-01-07T02:47:38.294Z,1014.41
2018-01-07T02:48:38.570Z,1014.40
2018-01-07T02:49:38.362Z,1014.39
2018-01-07T02:50:38.391Z,1014.40
2018-01-07T02:51:38.415Z,1014.38
2018-01-07T02:52:38.444Z,1014.45
2018-01-07T02:53:38.476Z,1014.45
2018-01-07T02:54:38.507Z,1014.45
2018-01-07T02:55:38.838Z,1014.44
2018-01-07T02:56:38.565Z,1014.48
2018-01-07T02:57:38.608Z,1014.48
2018-01-07T02:58:38.649Z,1014.49
2018-01-07T02:59:38.661Z,1014.51
2018-01-07T03:00:38.692Z,1014.53
2018-01-07T03:01:38.719Z,1014.51
2018-01-07T03:02:39.050Z,1014.52
2018-01-07T03:03:38.791Z,1014.51
2018-01-07T03:04:38.814Z,1014.51
2018-01-07T03:05:38.850Z,1014.51
2018-01-07T03:06:38.874Z,1014.49
2018-01-07T03:07:38.903Z,1014.51
2018-01-07T03:08:38.932Z,1014.55
2018-01-07T03:09:39.215Z,1014.58
2018-01-07T03:10:38.997Z,1014.63
2018-01-07T03:11:39.027Z,1014.67
2018-01-07T03:13:39.086Z,1014.73
2018-01-07T03:14:39.118Z,1014.75
2018-01-07T03:15:39.151Z,1014.74
2018-01-07T03:16:39.477Z,1014.74
2018-01-07T03:17:39.212Z,1014.72
2018-01-07T03:18:39.241Z,1014.80
2018-01-07T03:19:39.271Z,1014.78
2018-01-07T03:20:39.305Z,1014.79
2018-01-07T03:21:39.333Z,1014.78
2018-01-07T03:22:39.366Z,1014.76
2018-01-07T03:23:39.400Z,1014.75
2018-01-07T03:24:39.442Z,1014.76
2018-01-07T03:25:39.460Z,1014.75
2018-01-07T03:26:39.485Z,1014.75
2018-01-07T03:27:39.518Z,1014.78
2018-01-07T03:28:39.549Z,1014.77
2018-01-07T03:29:39.828Z,1014.77
2018-01-07T03:30:39.607Z,1014.81
2018-01-07T03:31:39.641Z,1014.77
2018-01-07T03:32:39.687Z,1014.80
2018-01-07T03:33:39.699Z,1014.80
2018-01-07T03:34:39.735Z,1014.81
2018-01-07T03:35:39.761Z,1014.83
2018-01-07T03:36:40.091Z,1014.84
2018-01-07T03:37:39.996Z,1014.86
2018-01-07T03:38:39.852Z,1014.82
2018-01-07T03:39:39.882Z,1014.80
2018-01-07T03:40:39.912Z,1014.80
2018-01-07T03:41:39.979Z,1014.79
2018-01-07T03:43:40.004Z,1014.82
2018-01-07T03:44:40.282Z,1014.84
2018-01-07T03:45:40.066Z,1014.85
2018-01-07T03:46:40.095Z,1014.83
2018-01-07T03:48:40.160Z,1014.87
2018-01-07T03:49:40.233Z,1014.90
2018-01-07T03:50:40.215Z,1014.91
2018-01-07T03:51:40.250Z,1014.91
2018-01-07T03:52:40.295Z,1014.90
2018-01-07T03:53:40.312Z,1014.90
2018-01-07T03:54:40.337Z,1014.92
2018-01-07T03:55:40.398Z,1014.95
2018-01-07T03:56:40.400Z,1014.94
2018-01-07T03:57:40.699Z,1014.97
2018-01-07T03:58:40.471Z,1014.99
2018-01-07T03:59:40.537Z,1014.96
2018-01-07T04:00:40.536Z,1014.99
2018-01-07T04:01:40.549Z,1014.95
2018-01-07T04:02:40.595Z,1014.94
2018-01-07T04:03:40.616Z,1014.96
2018-01-07T04:04:40.893Z,1014.97
2018-01-07T04:05:40.673Z,1014.96
2018-01-07T04:06:40.703Z,1014.98
2018-01-07T04:07:40.741Z,1014.97
2018-01-07T04:08:40.766Z,1014.94
2018-01-07T04:10:40.826Z,1015.02
2018-01-07T04:11:41.111Z,1015.03
2018-01-07T04:12:40.886Z,1015.00
2018-01-07T04:13:40.917Z,1015.02
2018-01-07T04:14:40.949Z,1014.99
2018-01-07T04:15:40.982Z,1014.95
2018-01-07T04:16:41.023Z,1014.96
2018-01-07T04:17:41.415Z,1014.98
2018-01-07T04:18:41.375Z,1015.00
2018-01-07T04:19:41.100Z,1015.03
2018-01-07T04:20:41.139Z,1015.00
2018-01-07T04:21:41.164Z,1015.03
2018-01-07T04:22:41.271Z,1015.08
2018-01-07T04:23:41.230Z,1015.02
2018-01-07T04:24:41.258Z,1015.06
2018-01-07T04:25:41.785Z,1015.04
2018-01-07T04:27:41.363Z,1015.07
2018-01-07T04:28:41.373Z,1015.06
2018-01-07T04:30:41.442Z,1015.10
2018-01-07T04:31:41.468Z,1015.06
2018-01-07T04:32:41.550Z,1015.08
2018-01-07T04:33:41.527Z,1015.07
2018-01-07T04:34:41.558Z,1015.04
2018-01-07T04:36:41.615Z,1015.04
2018-01-07T04:37:41.648Z,1015.05
2018-01-07T04:38:42.036Z,1015.05
2018-01-07T04:39:41.714Z,1015.05
2018-01-07T04:40:41.742Z,1015.09
2018-01-07T04:41:41.775Z,1015.12
2018-01-07T04:42:41.808Z,1015.08
2018-01-07T04:43:41.837Z,1015.09
2018-01-07T04:44:41.862Z,1015.12
2018-01-07T04:45:42.193Z,1015.08
2018-01-07T04:46:41.925Z,1015.07
2018-01-07T04:47:41.957Z,1015.15
2018-01-07T04:48:41.984Z,1015.18
2018-01-07T04:49:42.013Z,1015.19
2018-01-07T04:50:42.043Z,1015.19
2018-01-07T04:51:42.084Z,1015.26
2018-01-07T04:52:42.359Z,1015.27
2018-01-07T04:53:42.141Z,1015.30
2018-01-07T04:54:42.181Z,1015.25
2018-01-07T04:55:42.201Z,1015.31
2018-01-07T04:56:42.224Z,1015.28
2018-01-07T04:57:42.249Z,1015.29
2018-01-07T04:58:42.543Z,1015.25
2018-01-07T04:59:42.312Z,1015.29
2018-01-07T05:00:42.342Z,1015.33
2018-01-07T05:01:42.392Z,1015.30
2018-01-07T05:02:42.407Z,1015.29
2018-01-07T05:03:42.431Z,1015.34
2018-01-07T05:04:42.718Z,1015.36
2018-01-07T05:05:42.526Z,1015.28
2018-01-07T05:06:42.532Z,1015.29
2018-01-07T05:07:42.562Z,1015.31
2018-01-07T05:08:42.587Z,1015.27
2018-01-07T05:09:42.611Z,1015.29
2018-01-07T05:10:42.646Z,1015.33
2018-01-07T05:11:42.923Z,1015.37
2018-01-07T05:12:42.704Z,1015.38
2018-01-07T05:13:42.739Z,1015.42
2018-01-07T05:14:42.761Z,1015.43
2018-01-07T05:16:42.826Z,1015.47
2018-01-07T05:17:42.858Z,1015.49
2018-01-07T05:18:43.181Z,1015.52
2018-01-07T05:19:42.916Z,1015.53
2018-01-07T05:20:42.941Z,1015.55
2018-01-07T05:21:42.972Z,1015.51
2018-01-07T05:22:43.003Z,1015.51
2018-01-07T05:23:43.036Z,1015.56
2018-01-07T05:24:43.076Z,1015.54
2018-01-07T05:25:43.342Z,1015.58
2018-01-07T05:26:43.331Z,1015.62
2018-01-07T05:27:43.173Z,1015.60
2018-01-07T05:28:43.183Z,1015.64
2018-01-07T05:29:43.221Z,1015.66
2018-01-07T05:30:43.241Z,1015.61
2018-01-07T05:31:43.271Z,1015.65
2018-01-07T05:32:43.607Z,1015.67
2018-01-07T05:33:43.354Z,1015.68
2018-01-07T05:34:43.390Z,1015.71
2018-01-07T05:35:43.395Z,1015.73
2018-01-07T05:36:43.423Z,1015.76
2018-01-07T05:37:43.458Z,1015.75
2018-01-07T05:38:43.730Z,1015.84
2018-01-07T05:39:43.531Z,1015.82
2018-01-07T05:40:43.541Z,1015.85
2018-01-07T05:41:43.601Z,1015.90
2018-01-07T05:42:43.604Z,1015.92
2018-01-07T05:43:43.638Z,1015.91
2018-01-07T05:44:43.662Z,1015.85
2018-01-07T05:45:43.990Z,1015.95
2018-01-07T05:46:43.721Z,1015.93
2018-01-07T05:47:43.753Z,1015.96
2018-01-07T05:48:43.789Z,1015.90
2018-01-07T05:49:43.809Z,1015.94
2018-01-07T05:50:43.880Z,1015.96
2018-01-07T05:51:43.894Z,1015.91
2018-01-07T05:52:44.150Z,1016.00
2018-01-07T05:53:43.929Z,1015.97
2018-01-07T05:54:44.202Z,1016.03
2018-01-07T05:55:43.994Z,1015.97
2018-01-07T05:56:44.033Z,1016.02
2018-01-07T05:57:44.049Z,1016.07
2018-01-07T05:58:44.078Z,1016.08
2018-01-07T05:59:44.376Z,1016.10
2018-01-07T06:00:44.141Z,1016.11
2018-01-07T06:01:44.170Z,1016.14
2018-01-07T06:02:44.214Z,1016.06
2018-01-07T06:03:45.474Z,1016.11
2018-01-07T06:04:44.258Z,1016.09
2018-01-07T06:05:44.289Z,1016.18
2018-01-07T06:06:44.568Z,1016.13
2018-01-07T06:07:44.358Z,1016.16
2018-01-07T06:08:44.395Z,1016.24
2018-01-07T06:09:44.406Z,1016.20
2018-01-07T06:10:44.438Z,1016.22
2018-01-07T06:11:44.512Z,1016.27
2018-01-07T06:12:44.509Z,1016.32
2018-01-07T06:13:45.835Z,1016.33
2018-01-07T06:14:44.558Z,1016.31
2018-01-07T06:15:44.588Z,1016.40
2018-01-07T06:16:44.620Z,1016.37
2018-01-07T06:17:44.674Z,1016.42
2018-01-07T06:18:44.676Z,1016.40
2018-01-07T06:19:44.705Z,1016.45
2018-01-07T06:20:44.983Z,1016.40
2018-01-07T06:21:44.763Z,1016.48
2018-01-07T06:22:44.800Z,1016.45
2018-01-07T06:23:44.823Z,1016.45
2018-01-07T06:24:44.850Z,1016.45
2018-01-07T06:25:44.881Z,1016.43
2018-01-07T06:26:44.920Z,1016.56
2018-01-07T06:27:45.194Z,1016.50
2018-01-07T06:28:44.973Z,1016.51
2018-01-07T06:29:45.000Z,1016.56
2018-01-07T06:30:45.031Z,1016.57
2018-01-07T06:31:45.063Z,1016.58
2018-01-07T06:32:45.088Z,1016.60
2018-01-07T06:33:45.121Z,1016.55
2018-01-07T06:34:45.453Z,1016.60
2018-01-07T06:35:45.192Z,1016.65
2018-01-07T06:36:45.212Z,1016.59
2018-01-07T06:37:45.238Z,1016.65
2018-01-07T06:38:45.270Z,1016.65
2018-01-07T06:39:45.297Z,1016.67
2018-01-07T06:40:45.339Z,1016.57
2018-01-07T06:41:45.610Z,1016.72
2018-01-07T06:42:45.390Z,1016.79
2018-01-07T06:43:45.417Z,1016.77
2018-01-07T06:44:45.452Z,1016.83
2018-01-07T06:45:45.500Z,1016.83
2018-01-07T06:46:45.505Z,1016.83
2018-01-07T06:48:45.563Z,1017.02
2018-01-07T06:49:45.851Z,1017.02
2018-01-07T06:50:45.623Z,1017.02
2018-01-07T06:51:45.660Z,1017.00
2018-01-07T06:52:45.683Z,1016.99
2018-01-07T06:53:45.721Z,1017.06
2018-01-07T06:54:45.744Z,1017.09
2018-01-07T06:55:45.772Z,1017.09
2018-01-07T06:56:46.055Z,1017.12
2018-01-07T06:57:45.831Z,1017.17
2018-01-07T06:58:45.860Z,1017.07
2018-01-07T06:59:45.893Z,1017.18
2018-01-07T07:00:45.924Z,1017.23
2018-01-07T07:01:45.951Z,1017.26
2018-01-07T07:02:45.989Z,1017.31
2018-01-07T07:03:46.261Z,1017.38
2018-01-07T07:04:46.037Z,1017.39
2018-01-07T07:05:46.078Z,1017.39
2018-01-07T07:06:46.104Z,1017.46
2018-01-07T07:07:46.130Z,1017.48
2018-01-07T07:08:46.171Z,1017.48
2018-01-07T07:09:46.185Z,1017.47
2018-01-07T07:10:46.516Z,1017.53
2018-01-07T07:11:46.253Z,1017.54
2018-01-07T07:12:46.273Z,1017.55
2018-01-07T07:13:46.306Z,1017.56
2018-01-07T07:14:46.340Z,1017.58
2018-01-07T07:15:46.365Z,1017.60
2018-01-07T07:16:46.396Z,1017.61
2018-01-07T07:17:46.672Z,1017.60
2018-01-07T07:18:46.451Z,1017.62
2018-01-07T07:19:46.481Z,1017.64
2018-01-07T07:20:46.517Z,1017.63
2018-01-07T07:21:46.538Z,1017.63
2018-01-07T07:22:47.639Z,1017.72
2018-01-07T07:23:46.614Z,1017.75
2018-01-07T07:24:46.879Z,1017.81
2018-01-07T07:25:46.662Z,1017.82
2018-01-07T07:26:46.689Z,1017.87
2018-01-07T07:27:46.803Z,1017.87
2018-01-07T07:28:46.762Z,1017.92
2018-01-07T07:29:46.781Z,1017.92
2018-01-07T07:30:46.807Z,1017.92
2018-01-07T07:31:47.139Z,1017.91
2018-01-07T07:32:46.863Z,1017.91
2018-01-07T07:33:46.898Z,1017.90
2018-01-07T07:34:46.927Z,1017.95
2018-01-07T07:35:46.954Z,1017.95
2018-01-07T07:36:46.983Z,1017.98
2018-01-07T07:37:47.012Z,1017.99
2018-01-07T07:38:47.343Z,1017.97
2018-01-07T07:39:47.071Z,1018.00
2018-01-07T07:40:47.100Z,1017.96
2018-01-07T07:41:47.134Z,1018.01
2018-01-07T07:42:47.168Z,1018.03
2018-01-07T07:43:47.190Z,1018.01
2018-01-07T07:44:47.222Z,1017.97
2018-01-07T07:45:47.501Z,1018.03
2018-01-07T07:46:47.282Z,1018.02
2018-01-07T07:47:47.309Z,1018.03
2018-01-07T07:48:47.336Z,1018.05
2018-01-07T07:49:47.374Z,1018.07
2018-01-07T07:50:47.403Z,1018.07
2018-01-07T07:51:47.678Z,1018.02
2018-01-07T07:53:47.483Z,1018.07
2018-01-07T07:54:47.526Z,1018.11
2018-01-07T07:55:47.553Z,1018.06
2018-01-07T07:56:47.587Z,1018.06
2018-01-07T07:57:47.855Z,1018.04
2018-01-07T07:58:48.921Z,1018.07
2018-01-07T07:59:47.663Z,1018.04
2018-01-07T08:00:47.690Z,1018.13
2018-01-07T08:01:47.729Z,1018.14
2018-01-07T08:02:47.751Z,1018.19
2018-01-07T08:03:48.040Z,1018.18
2018-01-07T08:04:47.824Z,1018.22
2018-01-07T08:05:47.839Z,1018.26
2018-01-07T08:06:47.872Z,1018.25
2018-01-07T08:07:47.903Z,1018.23
2018-01-07T08:08:47.941Z,1018.30
2018-01-07T08:09:47.959Z,1018.28
2018-01-07T08:10:48.242Z,1018.33
2018-01-07T08:11:48.014Z,1018.35
2018-01-07T08:12:48.048Z,1018.25
2018-01-07T08:13:48.079Z,1018.33
2018-01-07T08:14:48.106Z,1018.36
2018-01-07T08:15:48.149Z,1018.46
2018-01-07T08:16:48.176Z,1018.46
2018-01-07T08:18:48.226Z,1018.43
2018-01-07T08:19:48.249Z,1018.48
2018-01-07T08:20:48.279Z,1018.46
2018-01-07T08:21:48.312Z,1018.46
2018-01-07T08:22:48.337Z,1018.43
2018-01-07T08:23:48.369Z,1018.46
2018-01-07T08:24:48.646Z,1018.46
2018-01-07T08:25:48.441Z,1018.44
2018-01-07T08:26:48.455Z,1018.50
2018-01-07T08:27:48.485Z,1018.48
2018-01-07T08:28:48.514Z,1018.52
2018-01-07T08:30:48.576Z,1018.45
2018-01-07T08:31:48.854Z,1018.61
2018-01-07T08:32:48.632Z,1018.60
2018-01-07T08:33:48.663Z,1018.64
2018-01-07T08:34:48.701Z,1018.66
2018-01-07T08:35:48.730Z,1018.69
2018-01-07T08:36:48.754Z,1018.68
2018-01-07T08:37:48.779Z,1018.73
2018-01-07T08:38:49.063Z,1018.81
2018-01-07T08:39:48.926Z,1018.72
2018-01-07T08:40:48.867Z,1018.80
2018-01-07T08:41:48.907Z,1018.80
2018-01-07T08:42:48.938Z,1018.83
2018-01-07T08:43:49.001Z,1018.79
2018-01-07T08:44:48.986Z,1018.84
2018-01-07T08:46:49.295Z,1018.86
2018-01-07T08:47:49.076Z,1018.90
2018-01-07T08:48:49.103Z,1018.93
2018-01-07T08:49:49.133Z,1018.91
2018-01-07T08:50:49.162Z,1018.97
2018-01-07T08:51:49.192Z,1018.99
2018-01-07T08:52:49.221Z,1019.01
2018-01-07T08:53:49.504Z,1018.96
2018-01-07T08:54:49.286Z,1018.98
2018-01-07T08:55:49.310Z,1018.94
2018-01-07T08:56:49.339Z,1018.95
2018-01-07T08:57:49.373Z,1018.96
2018-01-07T08:58:49.421Z,1018.98
2018-01-07T08:59:49.440Z,1018.99
2018-01-07T09:00:50.713Z,1019.05
2018-01-07T09:01:49.489Z,1019.05
2018-01-07T09:02:49.518Z,1019.10
2018-01-07T09:03:49.552Z,1019.09
2018-01-07T09:04:49.577Z,1019.11
2018-01-07T09:05:49.614Z,1019.11
2018-01-07T09:06:49.650Z,1019.16
2018-01-07T09:07:49.916Z,1019.17
2018-01-07T09:08:49.697Z,1019.21
2018-01-07T09:09:49.743Z,1019.18
2018-01-07T09:10:49.756Z,1019.21
2018-01-07T09:11:49.787Z,1019.19
2018-01-07T09:12:49.821Z,1019.17
2018-01-07T09:13:49.853Z,1019.21
2018-01-07T09:14:50.189Z,1019.20
2018-01-07T09:15:49.917Z,1019.22
2018-01-07T09:16:49.957Z,1019.26
2018-01-07T09:17:49.981Z,1019.26
2018-01-07T09:18:50.002Z,1019.30
2018-01-07T09:19:50.028Z,1019.36
2018-01-07T09:20:50.058Z,1019.34
2018-01-07T09:21:50.393Z,1019.34
2018-01-07T09:22:50.136Z,1019.39
2018-01-07T09:23:50.147Z,1019.40
2018-01-07T09:24:50.186Z,1019.36
2018-01-07T09:25:50.211Z,1019.36
2018-01-07T09:26:50.234Z,1019.44
2018-01-07T09:27:50.305Z,1019.44
2018-01-07T09:28:50.545Z,1019.43
2018-01-07T09:29:50.328Z,1019.42
2018-01-07T09:30:50.371Z,1019.43
2018-01-07T09:31:50.399Z,1019.46
2018-01-07T09:32:50.417Z,1019.50
2018-01-07T09:33:50.480Z,1019.50
2018-01-07T09:34:50.479Z,1019.52
2018-01-07T09:35:50.810Z,1019.50
2018-01-07T09:36:50.546Z,1019.51
2018-01-07T09:37:50.572Z,1019.55
2018-01-07T09:38:50.600Z,1019.51
2018-01-07T09:39:50.628Z,1019.53
2018-01-07T09:40:50.718Z,1019.52
2018-01-07T09:41:50.686Z,1019.51
2018-01-07T09:42:50.971Z,1019.54
2018-01-07T09:43:50.752Z,1019.53
2018-01-07T09:44:50.788Z,1019.56
2018-01-07T09:45:50.809Z,1019.59
2018-01-07T09:46:50.843Z,1019.62
2018-01-07T09:47:50.868Z,1019.66
2018-01-07T09:48:50.903Z,1019.64
2018-01-07T09:49:51.185Z,1019.67
2018-01-07T09:50:50.959Z,1019.71
2018-01-07T09:51:51.005Z,1019.67
2018-01-07T09:52:51.026Z,1019.69
2018-01-07T09:53:51.053Z,1019.68
2018-01-07T09:54:51.081Z,1019.69
2018-01-07T09:55:51.119Z,1019.65
2018-01-07T09:56:51.440Z,1019.70
2018-01-07T09:57:51.175Z,1019.66
2018-01-07T09:58:51.201Z,1019.65
2018-01-07T09:59:51.276Z,1019.62
2018-01-07T10:00:51.264Z,1019.65
2018-01-07T10:01:51.291Z,1019.66
2018-01-07T10:02:51.330Z,1019.65
2018-01-07T10:03:51.608Z,1019.65
2018-01-07T10:04:51.382Z,1019.63
2018-01-07T10:05:51.413Z,1019.61
2018-01-07T10:06:51.442Z,1019.64
2018-01-07T10:07:51.474Z,1019.69
2018-01-07T10:08:51.513Z,1019.64
2018-01-07T10:09:51.784Z,1019.72
2018-01-07T10:10:51.568Z,1019.72
2018-01-07T10:11:51.596Z,1019.74
2018-01-07T10:12:51.662Z,1019.75
2018-01-07T10:13:51.659Z,1019.78
2018-01-07T10:14:51.700Z,1019.81
2018-01-07T10:15:51.970Z,1019.81
2018-01-07T10:16:51.747Z,1019.85
2018-01-07T10:17:51.787Z,1019.85
2018-01-07T10:20:51.898Z,1019.93
2018-01-07T10:21:52.153Z,1019.91
2018-01-07T10:22:51.931Z,1019.91
2018-01-07T10:23:51.967Z,1019.91
2018-01-07T10:24:51.991Z,1019.91
2018-01-07T10:26:52.053Z,1019.91
2018-01-07T10:27:52.082Z,1019.99
2018-01-07T10:28:52.369Z,1020.00
2018-01-07T10:29:52.170Z,1020.03
2018-01-07T10:30:52.175Z,1020.05
2018-01-07T10:31:52.205Z,1020.08
2018-01-07T10:32:52.237Z,1020.05
2018-01-07T10:33:52.269Z,1020.01
2018-01-07T10:34:52.405Z,1019.99
2018-01-07T10:35:52.797Z,1020.00
2018-01-07T10:36:52.362Z,1020.00
2018-01-07T10:37:52.395Z,1019.98
2018-01-07T10:38:52.459Z,1020.00
2018-01-07T10:39:52.454Z,1019.98
2018-01-07T10:40:52.481Z,1020.00
2018-01-07T10:41:52.514Z,1019.97
2018-01-07T10:42:52.790Z,1019.94
2018-01-07T10:43:52.581Z,1019.98
2018-01-07T10:44:52.603Z,1020.04
2018-01-07T10:45:52.653Z,1019.96
2018-01-07T10:46:52.667Z,1019.95
2018-01-07T10:47:52.697Z,1019.95
2018-01-07T10:48:52.725Z,1019.94
2018-01-07T10:49:53.038Z,1019.93
2018-01-07T10:50:52.785Z,1019.94
2018-01-07T10:51:52.824Z,1019.92
2018-01-07T10:52:52.883Z,1019.95
2018-01-07T10:54:52.943Z,1019.96
2018-01-07T10:56:53.224Z,1019.97
2018-01-07T10:57:53.003Z,1019.98
2018-01-07T10:58:53.034Z,1019.97
2018-01-07T10:59:53.065Z,1020.00
2018-01-07T11:00:53.100Z,1019.99
2018-01-07T11:01:53.126Z,1020.00
2018-01-07T11:02:53.161Z,1019.98
2018-01-07T11:03:53.450Z,1020.01
2018-01-07T11:04:53.219Z,1019.98
2018-01-07T11:05:53.260Z,1020.04
2018-01-07T11:06:53.297Z,1020.02
2018-01-07T11:07:53.313Z,1020.04
2018-01-07T11:08:53.361Z,1020.01
2018-01-07T11:09:53.374Z,1020.04
2018-01-07T11:10:53.655Z,1020.02
2018-01-07T11:11:53.434Z,1020.01
2018-01-07T11:12:53.470Z,1020.07
2018-01-07T11:13:53.700Z,1020.05
2018-01-07T11:14:53.528Z,1020.04
2018-01-07T11:16:53.602Z,1020.05
2018-01-07T11:17:53.923Z,1020.06
2018-01-07T11:18:53.659Z,1020.00
2018-01-07T11:19:53.681Z,1019.96
2018-01-07T11:20:53.714Z,1020.04
2018-01-07T11:21:53.747Z,1020.00
2018-01-07T11:22:53.778Z,1020.02
2018-01-07T11:23:53.808Z,1020.03
2018-01-07T11:24:54.085Z,1019.99
2018-01-07T11:25:53.887Z,1019.98
2018-01-07T11:26:53.897Z,1019.92
2018-01-07T11:27:53.931Z,1019.97
2018-01-07T11:28:53.961Z,1019.91
2018-01-07T11:29:54.012Z,1019.94
2018-01-07T11:30:54.024Z,1019.87
2018-01-07T11:31:54.355Z,1019.95
2018-01-07T11:32:54.092Z,1019.83
2018-01-07T11:33:54.115Z,1019.83
2018-01-07T11:34:54.144Z,1019.82
2018-01-07T11:35:54.177Z,1019.87
2018-01-07T11:36:54.229Z,1019.90
2018-01-07T11:37:54.239Z,1019.88
2018-01-07T11:38:54.518Z,1019.88
2018-01-07T11:39:54.307Z,1019.84
2018-01-07T11:41:54.361Z,1019.79
2018-01-07T11:42:54.397Z,1019.86
2018-01-07T11:43:54.422Z,1019.89
2018-01-07T11:44:54.452Z,1019.90
2018-01-07T11:47:54.798Z,1019.87
2018-01-07T11:48:54.578Z,1019.83
2018-01-07T11:49:54.901Z,1019.80
2018-01-07T11:50:54.645Z,1019.83
2018-01-07T11:51:54.683Z,1019.85
2018-01-07T11:52:54.702Z,1019.84
2018-01-07T11:53:54.739Z,1019.80
2018-01-07T11:54:55.016Z,1019.83
2018-01-07T11:55:54.796Z,1019.86
2018-01-07T11:56:54.823Z,1019.87
2018-01-07T11:57:54.858Z,1019.83
2018-01-07T11:58:54.888Z,1019.84
2018-01-07T11:59:54.923Z,1019.83
2018-01-07T12:00:54.953Z,1019.84
2018-01-07T12:01:57.052Z,1019.82
2018-01-07T12:02:55.014Z,1019.83
2018-01-07T12:03:55.193Z,1019.79
2018-01-07T12:04:55.076Z,1019.82
2018-01-07T12:05:55.109Z,1019.81
2018-01-07T12:06:55.136Z,1019.81
2018-01-07T12:07:55.170Z,1019.73
2018-01-07T12:08:55.456Z,1019.73
2018-01-07T12:09:55.230Z,1019.73
2018-01-07T12:10:55.260Z,1019.72
2018-01-07T12:11:55.288Z,1019.76
2018-01-07T12:12:55.320Z,1019.74
2018-01-07T12:13:55.351Z,1019.71
2018-01-07T12:14:55.381Z,1019.68
2018-01-07T12:15:55.671Z,1019.72
2018-01-07T12:16:55.448Z,1019.64
2018-01-07T12:17:55.476Z,1019.65
2018-01-07T12:18:55.520Z,1019.68
2018-01-07T12:19:55.540Z,1019.64
2018-01-07T12:20:55.565Z,1019.64
2018-01-07T12:21:55.605Z,1019.60
2018-01-07T12:22:55.943Z,1019.58
2018-01-07T12:23:55.667Z,1019.60
2018-01-07T12:24:55.694Z,1019.55
2018-01-07T12:25:55.720Z,1019.57
2018-01-07T12:26:55.753Z,1019.52
2018-01-07T12:27:55.785Z,1019.55
2018-01-07T12:28:55.813Z,1019.55
2018-01-07T12:29:56.145Z,1019.52
2018-01-07T12:31:55.914Z,1019.51
2018-01-07T12:32:55.936Z,1019.49
2018-01-07T12:33:55.970Z,1019.53
2018-01-07T12:34:55.997Z,1019.55
2018-01-07T12:35:56.033Z,1019.50
2018-01-07T12:36:56.314Z,1019.50